الصفحة الرئيسية
METAR-TAF:

METAR-TAF

مطار :

Kangiqsualujjuaq, كيبك, كندا

دائرة عرض: 58-43N, خط طول: 065-59W, ارتفاع: 60 متر

مراقبة الطقس الحالي

تاريخ ووقت الإصدار 1ساعة و 1 دقيقة قبل الساعة 17:00UTC
ريح 11 عقدة من الغرب تتزايد حتى 18 عقدة
درجة الحرارة 3°درجة مئوية
الرطوبة 93%
ضغط 1003 hPa
الرؤية: 9.7 كم
غيوم مفككة على ارتفاع 600 قدم
ملبد بالغيوم على ارتفاع 800 قدم
مطر خفيف

METAR: CYLU 151700Z 28011G18KT 6SM -RA BKN006 OVC008 03/02 A2961 RMK RA2ST3ST3 CIG EST SLP032

زمن: 14:01 (18:01 UTC)


TAF: مفقودة

أرصاد الطقس والتوقعات من أكثر من 4000 مطار (تقارير الطقس للمطار METAR والتنبؤ بالطقس بالمطارTAF).

المحطات المتاحة هي النقط الصفراء والحمراء على الخريطة.

حرك المؤشر فوق النقطة لمعرفة اسم المحطة.

ثم انقر لمعرفة أرصاد وتوقعات الطقس.

لتغيير الخارطة: اضغط على الأزرار الخضراء مع رمز الصليب الأسود للتكبير. على الزر الأخضر مع شرطة للتصغير، أو على الأسهم الخضراء للخرائط المجاورة.


METAR-TAF: